createdAt,value
2018-09-10T00:00:46.153Z,70.03
2018-09-10T00:01:46.098Z,70.32
2018-09-10T00:03:39.464Z,70.51
2018-09-10T00:04:39.438Z,70.23
2018-09-10T00:06:32.749Z,70.51
2018-09-10T00:07:32.727Z,70.42
2018-09-10T00:09:26.030Z,70.32
2018-09-10T00:10:25.990Z,70.51
2018-09-10T00:12:19.335Z,70.42
2018-09-10T00:13:19.290Z,70.42
2018-09-10T00:15:12.596Z,70.42
2018-09-10T00:16:12.568Z,71.09
2018-09-10T00:18:05.884Z,70.99
2018-09-10T00:19:05.874Z,71.09
2018-09-10T00:20:59.172Z,70.70
2018-09-10T00:21:59.104Z,70.80
2018-09-10T00:23:52.424Z,70.90
2018-09-10T00:24:52.385Z,70.70
2018-09-10T00:26:45.703Z,70.90
2018-09-10T00:27:45.659Z,71.19
2018-09-10T00:29:38.979Z,70.90
2018-09-10T00:30:38.940Z,70.90
2018-09-10T00:32:32.256Z,70.99
2018-09-10T00:33:32.205Z,71.28
2018-09-10T00:35:25.506Z,70.80
2018-09-10T00:36:25.476Z,70.90
2018-09-10T00:38:18.811Z,71.09
2018-09-10T00:39:18.758Z,70.70
2018-09-10T00:41:12.047Z,70.70
2018-09-10T00:42:12.021Z,70.99
2018-09-10T00:44:05.342Z,70.51
2018-09-10T00:45:05.297Z,71.09
2018-09-10T00:46:58.660Z,70.32
2018-09-10T00:47:58.572Z,71.09
2018-09-10T00:49:51.893Z,70.99
2018-09-10T00:50:51.860Z,70.99
2018-09-10T00:52:45.182Z,70.61
2018-09-10T00:53:45.132Z,71.09
2018-09-10T00:55:38.441Z,70.90
2018-09-10T00:56:38.400Z,70.99
2018-09-10T00:58:31.744Z,71.28
2018-09-10T00:59:31.678Z,70.67
2018-09-10T01:01:24.998Z,70.70
2018-09-10T01:02:24.948Z,71.28
2018-09-10T01:04:18.276Z,70.86
2018-09-10T01:05:18.227Z,70.76
2018-09-10T01:07:11.547Z,70.67
2018-09-10T01:08:11.501Z,70.80
2018-09-10T01:10:04.827Z,70.86
2018-09-10T01:11:04.762Z,71.15
2018-09-10T01:12:58.096Z,70.90
2018-09-10T01:13:58.052Z,71.44
2018-09-10T01:15:51.364Z,70.96
2018-09-10T01:16:51.331Z,70.96
2018-09-10T01:18:44.679Z,71.25
2018-09-10T01:19:44.609Z,70.96
2018-09-10T01:21:37.917Z,71.25
2018-09-10T01:22:37.891Z,71.05
2018-09-10T01:24:31.206Z,71.05
2018-09-10T01:25:31.173Z,71.15
2018-09-10T01:27:24.487Z,70.86
2018-09-10T01:28:24.453Z,70.96
2018-09-10T01:30:17.807Z,70.96
2018-09-10T01:31:17.737Z,71.19
2018-09-10T01:33:11.054Z,71.25
2018-09-10T01:34:11.017Z,71.15
2018-09-10T01:36:04.331Z,71.05
2018-09-10T01:37:04.283Z,71.05
2018-09-10T01:38:57.602Z,71.15
2018-09-10T01:39:57.554Z,71.34
2018-09-10T01:41:50.879Z,71.53
2018-09-10T01:42:50.837Z,71.44
2018-09-10T01:44:44.154Z,72.01
2018-09-10T01:45:44.117Z,71.44
2018-09-10T01:47:37.437Z,71.92
2018-09-10T01:48:37.388Z,72.30
2018-09-10T01:50:30.723Z,72.20
2018-09-10T01:51:30.663Z,72.11
2018-09-10T01:53:23.978Z,72.11
2018-09-10T01:54:23.945Z,71.63
2018-09-10T01:56:17.280Z,71.82
2018-09-10T01:57:17.223Z,71.92
2018-09-10T01:59:10.528Z,72.01
2018-09-10T02:00:10.510Z,72.11
2018-09-10T02:02:03.820Z,71.82
2018-09-10T02:03:03.783Z,72.20
2018-09-10T02:04:57.093Z,72.39
2018-09-10T02:05:57.056Z,72.01
2018-09-10T02:07:50.392Z,71.92
2018-09-10T02:08:50.343Z,71.92
2018-09-10T02:10:43.649Z,72.49
2018-09-10T02:11:43.615Z,72.97
2018-09-10T02:13:36.944Z,72.97
2018-09-10T02:14:36.899Z,72.97
2018-09-10T02:16:30.214Z,73.07
2018-09-10T02:17:30.169Z,73.13
2018-09-10T02:19:23.489Z,73.99
2018-09-10T02:20:23.466Z,74.08
2018-09-10T02:22:16.778Z,74.27
2018-09-10T02:23:16.730Z,74.27
2018-09-10T02:25:10.034Z,73.90
2018-09-10T02:26:09.994Z,73.90
2018-09-10T02:28:03.336Z,75.33
2018-09-10T02:29:03.302Z,74.95
2018-09-10T02:30:56.579Z,74.57
2018-09-10T02:31:56.551Z,74.57
2018-09-10T02:33:49.889Z,74.66
2018-09-10T02:34:49.836Z,74.76
2018-09-10T02:36:43.152Z,75.23
2018-09-10T02:37:43.106Z,75.33
2018-09-10T02:39:37.412Z,75.71
2018-09-10T02:40:37.380Z,75.48
2018-09-10T02:42:30.700Z,75.71
2018-09-10T02:43:30.663Z,75.87
2018-09-10T02:45:23.972Z,76.64
2018-09-10T02:46:23.930Z,75.96
2018-09-10T02:48:17.245Z,76.54
2018-09-10T02:49:17.198Z,76.35
2018-09-10T02:51:10.511Z,76.64
2018-09-10T02:52:10.474Z,77.21
2018-09-10T02:54:03.786Z,77.97
2018-09-10T02:55:03.816Z,77.78
2018-09-10T02:56:57.045Z,77.59
2018-09-10T02:57:57.016Z,77.78
2018-09-10T02:59:50.328Z,77.59
2018-09-10T03:00:50.280Z,77.88
2018-09-10T03:02:43.618Z,77.50
2018-09-10T03:03:43.557Z,77.59
2018-09-10T03:05:36.867Z,78.27
2018-09-10T03:06:36.846Z,78.45
2018-09-10T03:08:30.155Z,78.07
2018-09-10T03:09:30.123Z,78.17
2018-09-10T03:11:23.430Z,77.78
2018-09-10T03:12:23.378Z,78.45
2018-09-10T03:14:16.694Z,78.55
2018-09-10T03:15:16.646Z,78.27
2018-09-10T03:17:09.958Z,78.45
2018-09-10T03:18:09.921Z,79.03
2018-09-10T03:20:03.252Z,78.45
2018-09-10T03:21:03.198Z,78.84
2018-09-10T03:22:56.522Z,79.03
2018-09-10T03:23:56.492Z,78.74
2018-09-10T03:25:49.813Z,79.18
2018-09-10T03:26:49.760Z,78.80
2018-09-10T03:28:43.082Z,78.80
2018-09-10T03:29:43.032Z,79.28
2018-09-10T03:31:36.324Z,79.95
2018-09-10T03:32:36.304Z,79.85
2018-09-10T03:34:29.617Z,79.95
2018-09-10T03:35:29.567Z,80.33
2018-09-10T03:37:22.868Z,79.95
2018-09-10T03:38:22.834Z,80.52
2018-09-10T03:40:16.153Z,80.24
2018-09-10T03:41:16.103Z,80.33
2018-09-10T03:43:09.435Z,80.52
2018-09-10T03:44:09.395Z,80.62
2018-09-10T03:46:02.724Z,80.62
2018-09-10T03:47:02.669Z,80.81
2018-09-10T03:48:55.979Z,80.71
2018-09-10T03:49:55.943Z,81.20
2018-09-10T03:51:49.253Z,81.86
2018-09-10T03:52:49.212Z,81.77
2018-09-10T03:54:42.515Z,81.86
2018-09-10T03:55:42.479Z,81.96
2018-09-10T03:57:35.804Z,81.67
2018-09-10T03:58:35.756Z,81.86
2018-09-10T04:00:29.059Z,82.73
2018-09-10T04:01:29.024Z,82.15
2018-09-10T04:03:22.330Z,81.96
2018-09-10T04:04:22.305Z,81.67
2018-09-10T04:06:15.716Z,81.67
2018-09-10T04:07:15.561Z,81.29
2018-09-10T04:09:08.865Z,81.48
2018-09-10T04:10:08.834Z,80.90
2018-09-10T04:12:02.174Z,81.29
2018-09-10T04:13:02.114Z,81.67
2018-09-10T04:14:55.415Z,81.29
2018-09-10T04:15:55.381Z,81.86
2018-09-10T04:17:48.700Z,81.67
2018-09-10T04:18:48.650Z,81.38
2018-09-10T04:20:41.959Z,81.23
2018-09-10T04:21:41.920Z,81.43
2018-09-10T04:23:35.234Z,81.33
2018-09-10T04:24:35.195Z,81.13
2018-09-10T04:26:28.481Z,80.76
2018-09-10T04:27:28.464Z,80.37
2018-09-10T04:29:21.771Z,80.56
2018-09-10T04:30:21.729Z,80.76
2018-09-10T04:32:15.059Z,79.99
2018-09-10T04:33:15.001Z,79.89
2018-09-10T04:35:08.318Z,80.08
2018-09-10T04:36:08.366Z,80.18
2018-09-10T04:38:01.606Z,79.60
2018-09-10T04:39:01.577Z,79.64
2018-09-10T04:40:54.871Z,79.83
2018-09-10T04:41:54.827Z,79.07
2018-09-10T04:43:48.145Z,79.07
2018-09-10T04:44:48.096Z,79.07
2018-09-10T04:46:41.399Z,78.97
2018-09-10T04:47:41.370Z,78.40
2018-09-10T04:49:34.701Z,78.49
2018-09-10T04:50:34.644Z,78.05
2018-09-10T04:52:27.957Z,78.34
2018-09-10T04:53:28.099Z,78.15
2018-09-10T04:55:21.253Z,79.01
2018-09-10T04:56:21.202Z,78.25
2018-09-10T04:58:14.633Z,78.25
2018-09-10T04:59:14.486Z,78.72
2018-09-10T05:01:07.806Z,78.63
2018-09-10T05:02:07.761Z,78.34
2018-09-10T05:04:01.091Z,79.01
2018-09-10T05:05:01.032Z,78.63
2018-09-10T05:06:54.331Z,78.44
2018-09-10T05:07:54.303Z,78.82
2018-09-10T05:09:47.162Z,77.95
2018-09-10T05:10:47.083Z,78.63
2018-09-10T05:12:40.385Z,78.25
2018-09-10T05:13:40.352Z,78.34
2018-09-10T05:15:33.681Z,78.34
2018-09-10T05:16:33.621Z,78.34
2018-09-10T05:18:26.929Z,78.25
2018-09-10T05:19:26.920Z,79.01
2018-09-10T05:21:20.207Z,78.82
2018-09-10T05:22:20.168Z,78.44
2018-09-10T05:24:13.513Z,78.05
2018-09-10T05:25:13.451Z,78.82
2018-09-10T05:27:06.771Z,78.82
2018-09-10T05:28:06.810Z,78.72
2018-09-10T05:30:00.063Z,78.82
2018-09-10T05:31:00.012Z,79.21
2018-09-10T05:32:53.322Z,79.01
2018-09-10T05:33:53.291Z,79.30
2018-09-10T05:35:46.606Z,79.11
2018-09-10T05:36:46.558Z,78.82
2018-09-10T05:38:39.864Z,79.78
2018-09-10T05:39:39.829Z,79.68
2018-09-10T05:41:33.225Z,79.14
2018-09-10T05:42:33.111Z,79.24
2018-09-10T05:44:26.420Z,79.63
2018-09-10T05:45:26.434Z,79.82
2018-09-10T05:47:19.727Z,79.24
2018-09-10T05:48:19.778Z,79.24
2018-09-10T05:50:12.985Z,79.91
2018-09-10T05:51:12.945Z,80.01
2018-09-10T05:53:06.271Z,79.91
2018-09-10T05:54:06.212Z,79.24
2018-09-10T05:55:59.534Z,80.11
2018-09-10T05:56:59.483Z,79.63
2018-09-10T05:58:52.809Z,79.34
2018-09-10T05:59:52.763Z,79.91
2018-09-10T06:01:46.098Z,79.82
2018-09-10T06:02:46.044Z,80.01
2018-09-10T06:04:39.359Z,80.01
2018-09-10T06:05:39.334Z,79.38
2018-09-10T06:07:32.651Z,79.14
2018-09-10T06:08:32.605Z,79.14
2018-09-10T06:10:25.955Z,79.38
2018-09-10T06:11:25.873Z,79.38
2018-09-10T06:13:19.208Z,78.86
2018-09-10T06:14:19.158Z,79.28
2018-09-10T06:16:12.465Z,79.57
2018-09-10T06:17:12.427Z,79.96
2018-09-10T06:19:05.750Z,78.70
2018-09-10T06:20:05.704Z,79.09
2018-09-10T06:21:59.029Z,79.96
2018-09-10T06:22:58.985Z,80.05
2018-09-10T06:24:52.301Z,79.76
2018-09-10T06:25:52.271Z,80.05
2018-09-10T06:27:45.596Z,80.53
2018-09-10T06:28:45.531Z,80.53
2018-09-10T06:30:38.911Z,80.24
2018-09-10T06:31:38.816Z,80.15
2018-09-10T06:33:32.136Z,79.47
2018-09-10T06:34:32.077Z,78.99
2018-09-10T06:36:24.885Z,78.90
2018-09-10T06:37:24.860Z,78.70
2018-09-10T06:39:18.185Z,79.09
2018-09-10T06:40:18.162Z,78.90
2018-09-10T06:42:11.467Z,78.55
2018-09-10T06:43:11.421Z,78.36
2018-09-10T06:45:04.771Z,78.65
2018-09-10T06:46:04.746Z,78.36
2018-09-10T06:47:58.082Z,78.36
2018-09-10T06:48:58.039Z,78.94
2018-09-10T06:50:51.343Z,78.55
2018-09-10T06:51:51.312Z,78.17
2018-09-10T06:53:44.627Z,78.27
2018-09-10T06:54:44.598Z,78.27
2018-09-10T06:56:37.962Z,78.21
2018-09-10T06:57:37.865Z,78.02
2018-09-10T06:59:31.190Z,78.30
2018-09-10T07:00:31.151Z,77.73
2018-09-10T07:02:24.486Z,77.44
2018-09-10T07:03:24.440Z,78.02
2018-09-10T07:05:17.265Z,77.53
2018-09-10T07:06:17.251Z,77.44
2018-09-10T07:08:10.557Z,77.34
2018-09-10T07:09:10.518Z,77.06
2018-09-10T07:11:03.818Z,77.06
2018-09-10T07:12:03.787Z,77.53
2018-09-10T07:13:57.109Z,77.25
2018-09-10T07:14:57.068Z,77.73
2018-09-10T07:16:50.386Z,77.44
2018-09-10T07:17:50.353Z,77.53
2018-09-10T07:19:43.189Z,77.44
2018-09-10T07:20:43.145Z,77.25
2018-09-10T07:22:36.442Z,77.15
2018-09-10T07:23:36.418Z,77.44
2018-09-10T07:25:29.758Z,78.02
2018-09-10T07:26:29.699Z,77.92
2018-09-10T07:28:23.013Z,78.02
2018-09-10T07:29:22.973Z,77.83
2018-09-10T07:31:15.809Z,77.83
2018-09-10T07:32:15.771Z,78.30
2018-09-10T07:34:09.078Z,77.92
2018-09-10T07:35:09.047Z,77.96
2018-09-10T07:37:02.359Z,78.30
2018-09-10T07:38:02.311Z,78.30
2018-09-10T07:39:55.148Z,78.02
2018-09-10T07:40:55.100Z,78.78
2018-09-10T07:42:48.403Z,77.76
2018-09-10T07:43:48.446Z,78.34
2018-09-10T07:45:41.694Z,78.25
2018-09-10T07:46:41.649Z,78.06
2018-09-10T07:48:34.955Z,78.73
2018-09-10T07:49:34.939Z,77.76
2018-09-10T07:51:28.248Z,77.96
2018-09-10T07:52:28.197Z,78.44
2018-09-10T07:54:21.525Z,77.86
2018-09-10T07:55:21.473Z,77.58
2018-09-10T07:57:14.783Z,77.19
2018-09-10T07:58:14.754Z,77.48
2018-09-10T08:00:08.094Z,77.09
2018-09-10T08:01:08.023Z,77.38
2018-09-10T08:03:00.864Z,76.90
2018-09-10T08:04:00.805Z,77.09
2018-09-10T08:05:54.133Z,77.19
2018-09-10T08:06:54.083Z,77.86
2018-09-10T08:08:47.420Z,77.00
2018-09-10T08:09:47.373Z,77.09
2018-09-10T08:11:40.709Z,77.09
2018-09-10T08:12:40.639Z,77.51
2018-09-10T08:14:33.943Z,77.42
2018-09-10T08:15:33.913Z,77.51
2018-09-10T08:17:27.253Z,77.23
2018-09-10T08:18:27.203Z,76.84
2018-09-10T08:20:20.514Z,77.04
2018-09-10T08:21:20.484Z,76.75
2018-09-10T08:23:13.793Z,75.79
2018-09-10T08:24:13.821Z,76.17
2018-09-10T08:26:06.571Z,76.46
2018-09-10T08:27:06.535Z,75.98
2018-09-10T08:28:59.874Z,76.17
2018-09-10T08:29:59.846Z,75.69
2018-09-10T08:31:53.381Z,75.88
2018-09-10T08:32:53.358Z,76.07
2018-09-10T08:34:46.631Z,75.40
2018-09-10T08:35:46.604Z,75.49
2018-09-10T08:37:39.938Z,75.69
2018-09-10T08:38:39.884Z,75.15
2018-09-10T08:40:33.226Z,74.86
2018-09-10T08:41:33.174Z,75.05
2018-09-10T08:43:26.496Z,74.48
2018-09-10T08:44:26.452Z,74.38
2018-09-10T08:46:19.766Z,72.97
2018-09-10T08:47:19.732Z,72.97
2018-09-10T08:49:13.064Z,71.81
2018-09-10T08:50:13.005Z,70.76
2018-09-10T08:52:06.339Z,69.99
2018-09-10T08:53:06.298Z,70.56
2018-09-10T08:54:59.955Z,71.34
2018-09-10T08:55:59.838Z,71.14
2018-09-10T08:57:52.906Z,70.21
2018-09-10T08:58:52.861Z,70.89
2018-09-10T09:00:46.165Z,69.64
2018-09-10T09:01:46.168Z,69.06
2018-09-10T09:03:39.466Z,69.06
2018-09-10T09:04:39.427Z,69.06
2018-09-10T09:06:32.720Z,69.19
2018-09-10T09:07:32.706Z,68.42
2018-09-10T09:09:26.035Z,66.69
2018-09-10T09:10:25.992Z,67.03
2018-09-10T09:12:19.302Z,66.78
2018-09-10T09:13:19.265Z,67.94
2018-09-10T09:15:12.611Z,68.42
2018-09-10T09:16:12.560Z,68.99
2018-09-10T09:18:05.872Z,68.99
2018-09-10T09:19:05.843Z,68.42
2018-09-10T09:20:59.175Z,69.96
2018-09-10T09:21:59.138Z,70.15
2018-09-10T09:23:52.460Z,70.00
2018-09-10T09:24:52.408Z,69.42
2018-09-10T09:26:45.744Z,68.84
2018-09-10T09:27:45.721Z,69.51
2018-09-10T09:29:39.062Z,69.03
2018-09-10T09:30:38.990Z,69.51
2018-09-10T09:32:32.313Z,68.68
2018-09-10T09:33:32.283Z,68.84
2018-09-10T09:35:25.601Z,66.66
2018-09-10T09:36:25.561Z,67.20
2018-09-10T09:38:18.868Z,66.91
2018-09-10T09:39:18.841Z,66.72
2018-09-10T09:41:12.183Z,67.20
2018-09-10T09:42:12.128Z,66.75
2018-09-10T09:44:05.446Z,65.98
2018-09-10T09:45:05.434Z,67.20
2018-09-10T09:46:58.748Z,67.30
2018-09-10T09:47:58.702Z,66.66
2018-09-10T09:49:52.017Z,65.98
2018-09-10T09:50:51.984Z,65.69
2018-09-10T09:52:45.305Z,64.40
2018-09-10T09:53:45.268Z,63.37
2018-09-10T09:55:38.600Z,60.14
2018-09-10T09:56:38.623Z,60.47
2018-09-10T09:58:31.888Z,60.01
2018-09-10T09:59:31.863Z,59.27
2018-09-10T10:01:25.193Z,58.04
2018-09-10T10:02:25.153Z,57.68
2018-09-10T10:04:18.565Z,56.83
2018-09-10T10:05:18.455Z,56.09
2018-09-10T10:07:11.780Z,54.05
2018-09-10T10:08:11.738Z,53.59
2018-09-10T10:10:05.101Z,52.15
2018-09-10T10:11:05.060Z,51.87
2018-09-10T10:12:58.389Z,52.35
2018-09-10T10:13:58.349Z,52.25
2018-09-10T10:15:51.684Z,51.38
2018-09-10T10:16:51.654Z,51.81
2018-09-10T10:18:44.979Z,52.72
2018-09-10T10:19:44.940Z,52.33
2018-09-10T10:21:38.293Z,51.57
2018-09-10T10:22:38.255Z,51.99
2018-09-10T10:24:31.585Z,50.36
2018-09-10T10:25:31.553Z,49.49
2018-09-10T10:27:24.923Z,50.43
2018-09-10T10:28:24.869Z,49.39
2018-09-10T10:30:18.188Z,49.32
2018-09-10T10:31:18.163Z,48.73
2018-09-10T10:33:11.509Z,48.17
2018-09-10T10:34:11.475Z,48.15
2018-09-10T10:36:04.800Z,47.69
2018-09-10T10:37:04.765Z,47.66
2018-09-10T10:38:58.101Z,48.07
2018-09-10T10:39:58.076Z,47.13
2018-09-10T10:41:51.420Z,47.32
2018-09-10T10:42:51.381Z,48.00
2018-09-10T10:44:44.719Z,47.96
2018-09-10T10:45:44.689Z,48.05
2018-09-10T10:47:38.029Z,49.29
2018-09-10T10:48:37.994Z,49.32
2018-09-10T10:50:31.313Z,48.15
2018-09-10T10:51:31.288Z,49.02
2018-09-10T10:53:24.629Z,48.25
2018-09-10T10:54:24.595Z,47.86
2018-09-10T10:56:17.922Z,48.00
2018-09-10T10:57:17.899Z,48.88
2018-09-10T10:59:11.234Z,48.75
2018-09-10T11:00:11.215Z,48.93
2018-09-10T11:02:04.597Z,49.61
2018-09-10T11:03:04.561Z,49.71
2018-09-10T11:04:57.972Z,49.58
2018-09-10T11:05:57.871Z,49.71
2018-09-10T11:07:51.211Z,50.46
2018-09-10T11:08:51.180Z,51.79
2018-09-10T11:10:44.500Z,52.71
2018-09-10T11:11:44.462Z,53.09
2018-09-10T11:13:37.812Z,53.49
2018-09-10T11:14:37.776Z,53.12
2018-09-10T11:16:31.110Z,52.90
2018-09-10T11:17:31.066Z,53.97
2018-09-10T11:19:24.393Z,53.87
2018-09-10T11:20:24.345Z,54.16
2018-09-10T11:22:17.754Z,53.94
2018-09-10T11:23:17.640Z,54.23
2018-09-10T11:25:10.964Z,54.62
2018-09-10T11:26:10.941Z,54.69
2018-09-10T11:28:04.386Z,55.17
2018-09-10T11:29:04.223Z,54.79
2018-09-10T11:30:57.548Z,54.59
2018-09-10T11:31:57.520Z,54.79
2018-09-10T11:33:50.848Z,54.59
2018-09-10T11:34:50.818Z,53.81
2018-09-10T11:36:44.126Z,53.72
2018-09-10T11:37:44.122Z,53.81
2018-09-10T11:39:37.438Z,54.75
2018-09-10T11:40:37.396Z,54.08
2018-09-10T11:42:30.746Z,55.51
2018-09-10T11:43:30.728Z,55.43
2018-09-10T11:45:24.047Z,54.08
2018-09-10T11:46:24.067Z,52.82
2018-09-10T11:48:16.860Z,53.02
2018-09-10T11:49:16.818Z,52.53
2018-09-10T11:51:10.133Z,52.92
2018-09-10T11:52:10.109Z,52.56
2018-09-10T11:54:03.454Z,51.68
2018-09-10T11:55:03.382Z,52.27
2018-09-10T11:56:56.707Z,51.74
2018-09-10T11:57:56.682Z,48.81
2018-09-10T11:59:50.032Z,48.90
2018-09-10T12:00:49.994Z,48.71
2018-09-10T12:02:43.321Z,48.54
2018-09-10T12:03:43.283Z,49.12
2018-09-10T12:05:36.637Z,49.05
2018-09-10T12:06:36.577Z,48.78
2018-09-10T12:08:29.980Z,47.25
2018-09-10T12:09:29.883Z,46.77
2018-09-10T12:11:23.224Z,46.77
2018-09-10T12:12:23.167Z,46.69
2018-09-10T12:14:16.507Z,45.51
2018-09-10T12:15:16.472Z,44.95
2018-09-10T12:17:09.803Z,44.95
2018-09-10T12:18:09.768Z,44.56
2018-09-10T12:20:03.112Z,45.61
2018-09-10T12:21:03.064Z,44.85
2018-09-10T12:22:56.399Z,44.75
2018-09-10T12:23:56.367Z,45.02
2018-09-10T12:25:49.684Z,45.21
2018-09-10T12:26:49.666Z,45.51
2018-09-10T12:28:42.987Z,45.89
2018-09-10T12:29:42.954Z,45.87
2018-09-10T12:31:36.292Z,46.92
2018-09-10T12:32:36.249Z,47.11
2018-09-10T12:34:29.568Z,47.20
2018-09-10T12:35:29.549Z,48.27
2018-09-10T12:37:22.875Z,47.98
2018-09-10T12:38:22.827Z,48.47
2018-09-10T12:40:16.156Z,48.85
2018-09-10T12:41:16.128Z,48.08
2018-09-10T12:43:09.467Z,48.66
2018-09-10T12:44:09.451Z,49.24
2018-09-10T12:46:03.757Z,49.22
2018-09-10T12:47:03.723Z,50.45
2018-09-10T12:48:57.050Z,50.48
2018-09-10T12:49:57.023Z,50.96
2018-09-10T12:51:50.438Z,50.70
2018-09-10T12:52:50.338Z,50.60
2018-09-10T12:54:43.645Z,50.99
2018-09-10T12:55:43.613Z,50.79
2018-09-10T12:57:36.948Z,50.60
2018-09-10T12:58:36.991Z,50.89
2018-09-10T13:00:30.789Z,51.18
2018-09-10T13:01:30.315Z,50.60
2018-09-10T13:03:23.554Z,50.99
2018-09-10T13:04:23.513Z,50.70
2018-09-10T13:06:16.838Z,51.01
2018-09-10T13:07:16.819Z,50.31
2018-09-10T13:09:10.364Z,50.99
2018-09-10T13:10:10.100Z,50.34
2018-09-10T13:12:03.433Z,49.63
2018-09-10T13:13:03.404Z,50.41
2018-09-10T13:14:56.709Z,50.21
2018-09-10T13:15:56.682Z,50.02
2018-09-10T13:17:50.361Z,49.22
2018-09-10T13:18:50.031Z,49.70
2018-09-10T13:20:43.319Z,50.19
2018-09-10T13:21:43.298Z,49.51
2018-09-10T13:23:36.652Z,49.70
2018-09-10T13:24:36.601Z,49.32
2018-09-10T13:26:31.077Z,49.70
2018-09-10T13:27:31.025Z,50.38
2018-09-10T13:29:24.356Z,50.67
2018-09-10T13:30:24.308Z,51.35
2018-09-10T13:32:17.632Z,52.03
2018-09-10T13:33:17.610Z,51.74
2018-09-10T13:35:10.947Z,52.03
2018-09-10T13:36:10.902Z,52.22
2018-09-10T13:38:04.233Z,50.57
2018-09-10T13:39:04.206Z,50.48
2018-09-10T13:40:57.531Z,49.29
2018-09-10T13:41:57.497Z,49.77
2018-09-10T13:43:50.852Z,50.48
2018-09-10T13:44:50.821Z,50.07
2018-09-10T13:46:44.132Z,51.32
2018-09-10T13:47:44.102Z,50.55
2018-09-10T13:49:37.430Z,50.67
2018-09-10T13:50:37.427Z,50.48
2018-09-10T13:52:32.462Z,50.29
2018-09-10T13:53:32.467Z,50.67
2018-09-10T13:55:25.733Z,51.04
2018-09-10T13:56:25.721Z,50.48
2018-09-10T13:58:19.668Z,51.04
2018-09-10T13:59:19.052Z,52.10
2018-09-10T14:01:12.379Z,50.94
2018-09-10T14:02:12.341Z,50.65
2018-09-10T14:04:05.648Z,51.23
2018-09-10T14:05:05.606Z,51.32
2018-09-10T14:06:58.931Z,51.23
2018-09-10T14:07:58.908Z,51.32
2018-09-10T14:09:52.271Z,50.94
2018-09-10T14:10:52.304Z,50.84
2018-09-10T14:12:45.543Z,50.82
2018-09-10T14:13:45.537Z,50.92
2018-09-10T14:15:38.858Z,50.92
2018-09-10T14:16:38.824Z,50.92
2018-09-10T14:18:32.149Z,51.20
2018-09-10T14:19:32.108Z,51.88
2018-09-10T14:21:25.447Z,52.24
2018-09-10T14:22:25.407Z,51.86
2018-09-10T14:24:18.764Z,51.88
2018-09-10T14:25:18.715Z,52.24
2018-09-10T14:27:12.110Z,51.95
2018-09-10T14:28:12.011Z,51.76
2018-09-10T14:30:05.379Z,51.95
2018-09-10T14:31:05.308Z,51.86
2018-09-10T14:32:58.639Z,52.73
2018-09-10T14:33:58.599Z,53.21
2018-09-10T14:35:51.934Z,53.19
2018-09-10T14:36:51.889Z,53.28
2018-09-10T14:38:45.201Z,52.92
2018-09-10T14:39:45.173Z,53.02
2018-09-10T14:41:38.502Z,53.09
2018-09-10T14:42:38.446Z,53.47
2018-09-10T14:44:31.816Z,53.47
2018-09-10T14:45:31.751Z,53.86
2018-09-10T14:47:25.080Z,53.55
2018-09-10T14:48:25.035Z,54.32
2018-09-10T14:50:18.401Z,54.32
2018-09-10T14:51:18.336Z,54.51
2018-09-10T14:53:11.670Z,54.61
2018-09-10T14:54:11.603Z,54.61
2018-09-10T14:56:04.944Z,54.61
2018-09-10T14:57:04.894Z,54.71
2018-09-10T14:58:58.217Z,54.71
2018-09-10T14:59:58.189Z,54.41
2018-09-10T15:01:51.520Z,54.51
2018-09-10T15:02:51.467Z,54.61
2018-09-10T15:04:44.805Z,54.51
2018-09-10T15:05:44.786Z,54.53
2018-09-10T15:07:38.080Z,54.44
2018-09-10T15:08:38.050Z,53.96
2018-09-10T15:10:31.358Z,54.44
2018-09-10T15:11:31.339Z,54.53
2018-09-10T15:13:24.679Z,54.35
2018-09-10T15:14:24.651Z,54.53
2018-09-10T15:16:18.559Z,55.02
2018-09-10T15:17:17.931Z,53.86
2018-09-10T15:19:11.373Z,53.67
2018-09-10T15:20:11.215Z,53.67
2018-09-10T15:22:04.560Z,53.11
2018-09-10T15:23:04.505Z,53.02
2018-09-10T15:24:57.805Z,53.11
2018-09-10T15:25:57.830Z,52.63
2018-09-10T15:27:51.136Z,52.53
2018-09-10T15:28:51.088Z,52.34
2018-09-10T15:30:44.435Z,52.63
2018-09-10T15:31:44.402Z,52.63
2018-09-10T15:33:37.317Z,52.63
2018-09-10T15:34:37.270Z,52.66
2018-09-10T15:36:30.511Z,51.56
2018-09-10T15:37:30.555Z,52.14
2018-09-10T15:39:23.822Z,52.44
2018-09-10T15:40:23.778Z,53.21
2018-09-10T15:42:17.099Z,52.53
2018-09-10T15:43:17.071Z,52.73
2018-09-10T15:45:10.457Z,52.73
2018-09-10T15:46:10.386Z,53.11
2018-09-10T15:48:03.652Z,52.73
2018-09-10T15:49:03.656Z,52.63
2018-09-10T15:50:56.494Z,52.82
2018-09-10T15:51:56.427Z,52.17
2018-09-10T15:53:49.757Z,52.05
2018-09-10T15:54:49.706Z,51.86
2018-09-10T15:56:43.036Z,52.53
2018-09-10T15:57:42.987Z,52.27
2018-09-10T15:59:35.827Z,51.88
2018-09-10T16:00:35.791Z,51.68
2018-09-10T16:02:29.114Z,52.27
2018-09-10T16:03:29.083Z,52.14
2018-09-10T16:05:22.438Z,52.73
2018-09-10T16:06:22.374Z,52.53
2018-09-10T16:08:15.703Z,52.63
2018-09-10T16:09:15.688Z,53.21
2018-09-10T16:11:09.003Z,52.99
2018-09-10T16:12:08.964Z,53.09
2018-09-10T16:14:02.278Z,53.86
2018-09-10T16:15:02.255Z,53.86
2018-09-10T16:16:56.719Z,54.03
2018-09-10T16:17:56.577Z,54.13
2018-09-10T16:19:49.912Z,54.71
2018-09-10T16:20:49.866Z,54.25
2018-09-10T16:22:43.172Z,54.71
2018-09-10T16:23:43.180Z,54.51
2018-09-10T16:25:37.109Z,55.09
2018-09-10T16:26:36.445Z,54.32
2018-09-10T16:28:29.775Z,54.80
2018-09-10T16:29:29.736Z,54.99
2018-09-10T16:31:23.066Z,54.99
2018-09-10T16:32:23.021Z,55.47
2018-09-10T16:34:16.385Z,54.90
2018-09-10T16:35:16.323Z,55.09
2018-09-10T16:37:09.660Z,55.47
2018-09-10T16:38:09.600Z,55.47
2018-09-10T16:40:02.927Z,55.96
2018-09-10T16:41:02.930Z,55.38
2018-09-10T16:42:56.216Z,55.67
2018-09-10T16:43:56.183Z,55.57
2018-09-10T16:45:49.509Z,55.29
2018-09-10T16:46:49.470Z,55.87
2018-09-10T16:48:42.881Z,55.96
2018-09-10T16:49:42.754Z,55.87
2018-09-10T16:51:36.085Z,55.47
2018-09-10T16:52:36.035Z,55.87
2018-09-10T16:54:29.531Z,55.67
2018-09-10T16:55:29.325Z,55.77
2018-09-10T16:57:22.656Z,55.65
2018-09-10T16:58:22.624Z,55.67
2018-09-10T17:00:15.940Z,55.65
2018-09-10T17:01:15.907Z,55.65
2018-09-10T17:03:09.238Z,55.93
2018-09-10T17:04:09.191Z,55.65
2018-09-10T17:06:02.521Z,55.55
2018-09-10T17:07:02.484Z,55.55
2018-09-10T17:08:55.826Z,55.45
2018-09-10T17:09:55.800Z,55.65
2018-09-10T17:11:49.100Z,55.55
2018-09-10T17:12:49.066Z,55.65
2018-09-10T17:14:42.418Z,55.93
2018-09-10T17:15:42.341Z,55.83
2018-09-10T17:17:35.675Z,56.03
2018-09-10T17:18:35.627Z,56.32
2018-09-10T17:20:28.945Z,55.71
2018-09-10T17:21:28.942Z,55.81
2018-09-10T17:23:22.252Z,55.90
2018-09-10T17:24:22.200Z,56.29
2018-09-10T17:26:15.522Z,56.58
2018-09-10T17:27:15.535Z,55.71
2018-09-10T17:29:08.825Z,55.71
2018-09-10T17:30:08.776Z,56.10
2018-09-10T17:32:02.105Z,56.10
2018-09-10T17:33:02.059Z,55.90
2018-09-10T17:34:55.398Z,55.71
2018-09-10T17:35:55.352Z,55.62
2018-09-10T17:37:48.769Z,55.62
2018-09-10T17:38:48.722Z,55.71
2018-09-10T17:40:42.061Z,55.62
2018-09-10T17:41:42.039Z,55.49
2018-09-10T17:43:35.360Z,56.56
2018-09-10T17:44:35.327Z,56.65
2018-09-10T17:46:28.628Z,55.88
2018-09-10T17:47:28.612Z,56.56
2018-09-10T17:49:21.945Z,56.36
2018-09-10T17:50:21.912Z,55.88
2018-09-10T17:52:15.246Z,56.07
2018-09-10T17:53:15.193Z,56.46
2018-09-10T17:55:08.527Z,56.56
2018-09-10T17:56:08.497Z,57.04
2018-09-10T17:58:02.202Z,57.04
2018-09-10T17:59:01.803Z,57.10
2018-09-10T18:00:55.115Z,56.62
2018-09-10T18:01:55.057Z,57.39
2018-09-10T18:03:48.388Z,56.91
2018-09-10T18:04:48.333Z,57.49
2018-09-10T18:06:41.654Z,57.39
2018-09-10T18:07:41.627Z,56.91
2018-09-10T18:09:35.058Z,57.59
2018-09-10T18:10:34.939Z,58.36
2018-09-10T18:12:28.238Z,58.65
2018-09-10T18:13:28.208Z,58.42
2018-09-10T18:15:21.557Z,58.84
2018-09-10T18:16:21.482Z,59.39
2018-09-10T18:18:14.833Z,59.30
2018-09-10T18:19:14.780Z,59.39
2018-09-10T18:21:08.133Z,59.39
2018-09-10T18:22:08.108Z,60.06
2018-09-10T18:24:01.394Z,60.35
2018-09-10T18:25:01.464Z,60.55
2018-09-10T18:26:54.713Z,61.13
2018-09-10T18:27:54.653Z,61.38
2018-09-10T18:29:47.969Z,61.48
2018-09-10T18:30:47.943Z,61.38
2018-09-10T18:32:41.278Z,62.25
2018-09-10T18:33:41.223Z,61.29
2018-09-10T18:35:34.563Z,62.54